Time;durP1;ratioP1;P1;durP2;ratioP2;P2;SDS_P1;SDS_P2;PMS_P1;PMS_P2;Temp;Humidity;BMP_temperature;BMP_pressure;BME280_temperature;BME280_humidity;BME280_pressure;Samples;Min_cycle;Max_cycle;Signal;HPM_P1;HPM_P2
2022/03/16 00:01:38;;;;;;;38.65;24.13;;;11.90;73.80;;;;;;4954771;29;20016;-74
2022/03/16 00:04:04;;;;;;;36.42;23.98;;;11.90;73.80;;;;;;4954696;28;20039;-75
2022/03/16 00:06:30;;;;;;;35.83;23.42;;;11.90;73.80;;;;;;4953748;28;20039;-74
2022/03/16 00:08:56;;;;;;;31.38;22.30;;;11.90;73.80;;;;;;4953760;28;20085;-74
2022/03/16 00:11:22;;;;;;;32.20;22.73;;;11.90;73.70;;;;;;4954871;28;20024;-74
2022/03/16 00:13:49;;;;;;;35.78;22.75;;;12.00;73.70;;;;;;4954840;28;20023;-74
2022/03/16 00:16:15;;;;;;;38.30;23.10;;;12.00;73.70;;;;;;4954807;28;20362;-74
2022/03/16 00:18:41;;;;;;;32.15;22.65;;;12.00;73.60;;;;;;4954712;28;20023;-74
2022/03/16 00:21:08;;;;;;;31.30;21.90;;;12.00;73.60;;;;;;4953394;29;20039;-74
2022/03/16 00:23:34;;;;;;;33.88;22.40;;;12.00;73.50;;;;;;4953534;29;20029;-74
2022/03/16 00:26:03;;;;;;;29.52;21.60;;;12.00;73.60;;;;;;4954885;29;20027;-73
2022/03/16 00:28:30;;;;;;;32.60;22.33;;;12.00;73.50;;;;;;4953480;29;20070;-74
2022/03/16 00:30:55;;;;;;;39.10;24.75;;;12.00;73.60;;;;;;4954751;28;20023;-75
2022/03/16 00:33:21;;;;;;;35.72;22.30;;;12.00;73.70;;;;;;4954745;28;20386;-73
2022/03/16 00:35:47;;;;;;;36.60;22.90;;;12.00;73.70;;;;;;4954652;28;20497;-74
2022/03/16 00:38:16;;;;;;;30.95;21.50;;;12.00;73.60;;;;;;4957342;28;20027;-74
2022/03/16 00:40:43;;;;;;;26.85;18.48;;;12.00;73.50;;;;;;4958396;28;20491;-74
2022/03/16 00:43:09;;;;;;;28.95;18.02;;;12.10;73.60;;;;;;4958663;28;20037;-73
2022/03/16 00:45:35;;;;;;;29.08;18.05;;;12.10;73.80;;;;;;4956490;28;20053;-74
2022/03/16 00:48:01;;;;;;;29.52;18.05;;;12.10;73.90;;;;;;4957298;28;20520;-74
2022/03/16 00:50:28;;;;;;;32.58;20.75;;;12.10;73.90;;;;;;4954331;28;20046;-74
2022/03/16 00:52:54;;;;;;;28.80;17.75;;;12.20;74.80;;;;;;4954556;28;20031;-74
2022/03/16 00:55:20;;;;;;;27.98;17.30;;;12.20;74.00;;;;;;4956703;28;20114;-74
2022/03/16 00:57:46;;;;;;;26.38;17.77;;;12.20;73.80;;;;;;4957111;28;20114;-74
2022/03/16 01:00:12;;;;;;;28.60;15.93;;;12.20;73.70;;;;;;4957581;28;20031;-74
2022/03/16 01:02:38;;;;;;;28.05;16.42;;;12.30;73.70;;;;;;4956757;28;20045;-74
2022/03/16 01:05:05;;;;;;;27.48;15.75;;;12.30;73.60;;;;;;4955828;28;20063;-73
2022/03/16 01:07:31;;;;;;;22.90;14.88;;;12.30;73.60;;;;;;4962983;28;20054;-74
2022/03/16 01:09:57;;;;;;;24.98;14.20;;;12.30;73.60;;;;;;4958050;28;20159;-74
2022/03/16 01:12:24;;;;;;;23.77;13.75;;;12.30;73.70;;;;;;4938716;29;20394;-74
2022/03/16 01:14:49;;;;;;;24.27;13.82;;;12.30;73.70;;;;;;4938581;29;20461;-73
2022/03/16 01:17:15;;;;;;;17.58;12.68;;;12.40;73.70;;;;;;4937353;29;20020;-74
2022/03/16 01:19:41;;;;;;;21.45;12.48;;;12.40;73.70;;;;;;4938640;29;20027;-74
2022/03/16 01:22:08;;;;;;;17.77;11.73;;;12.40;73.70;;;;;;4946809;29;20493;-73
2022/03/16 01:24:33;;;;;;;21.70;11.98;;;12.40;73.60;;;;;;4956857;28;20030;-74
2022/03/16 01:26:59;;;;;;;20.20;11.93;;;12.40;73.60;;;;;;4957505;28;20035;-73
2022/03/16 01:29:27;;;;;;;17.48;11.23;;;12.50;73.60;;;;;;4957238;28;20031;-74
2022/03/16 01:31:54;;;;;;;19.70;10.52;;;12.50;73.50;;;;;;4956130;29;20031;-74
2022/03/16 01:34:20;;;;;;;14.23;10.38;;;12.50;73.50;;;;;;4956134;29;20028;-73
2022/03/16 01:36:47;;;;;;;14.10;11.00;;;12.50;73.50;;;;;;4957608;28;20015;-74
2022/03/16 01:39:14;;;;;;;12.60;9.95;;;12.50;73.50;;;;;;4957435;28;20362;-73
2022/03/16 01:41:42;;;;;;;13.48;9.95;;;12.50;73.40;;;;;;4945985;28;20024;-74
2022/03/16 01:44:08;;;;;;;15.95;10.52;;;12.60;73.60;;;;;;4940287;29;20024;-74
2022/03/16 01:46:34;;;;;;;17.42;10.27;;;12.60;73.40;;;;;;4957215;28;20023;-73
2022/03/16 01:49:00;;;;;;;14.02;10.02;;;12.60;73.30;;;;;;4954783;28;20031;-74
2022/03/16 01:51:27;;;;;;;17.83;11.48;;;12.60;73.20;;;;;;4957350;28;20015;-74
2022/03/16 01:53:53;;;;;;;18.73;11.68;;;12.60;73.00;;;;;;4955959;29;20023;-74
2022/03/16 01:56:19;;;;;;;15.45;10.52;;;12.60;72.80;;;;;;4956478;28;20035;-74
2022/03/16 01:58:45;;;;;;;15.70;10.85;;;12.60;72.60;;;;;;4937718;29;20058;-73
2022/03/16 02:01:13;;;;;;;13.88;10.82;;;12.60;72.40;;;;;;4947968;29;20473;-74
2022/03/16 02:03:39;;;;;;;17.15;11.52;;;12.60;72.30;;;;;;4956805;28;20477;-73
2022/03/16 02:06:05;;;;;;;21.08;12.88;;;12.50;72.00;;;;;;4956296;28;20054;-74
2022/03/16 02:08:33;;;;;;;16.92;12.77;;;12.50;71.50;;;;;;4956664;28;20489;-74
2022/03/16 02:10:59;;;;;;;15.38;11.77;;;12.50;71.50;;;;;;4956645;29;20081;-74
2022/03/16 02:13:25;;;;;;;15.50;11.32;;;12.50;71.30;;;;;;4941173;28;20071;-74
2022/03/16 02:15:50;;;;;;;14.98;11.98;;;12.40;71.40;;;;;;4959121;28;20031;-74
2022/03/16 02:18:16;;;;;;;15.20;12.27;;;12.40;71.10;;;;;;4955290;28;20500;-74
2022/03/16 02:20:42;;;;;;;14.32;10.60;;;12.40;71.10;;;;;;4956790;28;20023;-74
2022/03/16 02:23:09;;;;;;;11.52;9.85;;;12.40;70.90;;;;;;4956620;28;20023;-74
2022/03/16 02:25:52;;;;;;;17.00;12.23;;;12.40;71.00;;;;;;4956650;28;20393;-74
2022/03/16 02:28:18;;;;;;;16.77;11.27;;;12.40;70.50;;;;;;4955842;28;20028;-74
2022/03/16 02:30:44;;;;;;;16.50;11.00;;;12.40;70.10;;;;;;4956696;28;20034;-73
2022/03/16 02:33:10;;;;;;;15.40;11.85;;;12.30;69.40;;;;;;4956525;28;20054;-74
2022/03/16 02:35:36;;;;;;;12.55;10.60;;;12.30;68.80;;;;;;4956289;28;20532;-73
2022/03/16 02:38:03;;;;;;;18.02;11.10;;;12.20;68.50;;;;;;4955034;29;20063;-73
2022/03/16 02:40:29;;;;;;;14.65;10.90;;;12.10;68.40;;;;;;4954519;28;20106;-73
2022/03/16 02:42:55;;;;;;;15.77;11.55;;;12.00;68.30;;;;;;4935871;29;20020;-74
2022/03/16 02:45:21;;;;;;;16.98;11.48;;;11.90;68.20;;;;;;4938268;29;20086;-74
2022/03/16 02:47:47;;;;;;;12.45;9.18;;;11.80;67.80;;;;;;4956251;28;20429;-74
2022/03/16 02:50:14;;;;;;;10.88;8.80;;;11.70;68.00;;;;;;4956220;28;20027;-74
2022/03/16 02:52:41;;;;;;;12.88;10.07;;;11.60;68.70;;;;;;4956002;28;20067;-74
2022/03/16 02:55:07;;;;;;;11.93;9.73;;;11.50;67.80;;;;;;4954893;29;20027;-74
2022/03/16 02:57:33;;;;;;;11.52;8.85;;;11.50;67.80;;;;;;4955838;28;20070;-74
2022/03/16 02:59:59;;;;;;;13.73;9.68;;;11.40;68.00;;;;;;4960030;28;20029;-74
2022/03/16 03:02:25;;;;;;;13.10;10.63;;;11.30;67.80;;;;;;4980452;28;20023;-74
2022/03/16 03:04:51;;;;;;;13.95;10.60;;;11.20;68.00;;;;;;4975684;28;20023;-74
2022/03/16 03:07:17;;;;;;;14.85;10.20;;;11.20;68.10;;;;;;4975378;28;20026;-73
2022/03/16 03:09:43;;;;;;;15.70;11.55;;;11.10;68.20;;;;;;4968351;28;20035;-74
2022/03/16 03:12:09;;;;;;;18.38;11.95;;;11.10;68.20;;;;;;4956062;28;20405;-73
2022/03/16 03:14:37;;;;;;;17.23;12.30;;;11.00;68.20;;;;;;4955876;28;20031;-73
2022/03/16 03:17:03;;;;;;;14.30;10.70;;;11.00;68.30;;;;;;4954775;28;20023;-74
2022/03/16 03:19:29;;;;;;;14.77;11.40;;;10.90;68.30;;;;;;4962433;28;20023;-73
2022/03/16 03:21:54;;;;;;;15.02;10.88;;;10.90;68.40;;;;;;4970201;28;20028;-73
2022/03/16 03:24:21;;;;;;;15.05;11.82;;;10.90;68.60;;;;;;4955716;28;20446;-74
2022/03/16 03:26:47;;;;;;;12.95;10.48;;;10.90;68.80;;;;;;4954232;28;20027;-73
2022/03/16 03:29:14;;;;;;;14.07;10.75;;;10.90;69.00;;;;;;4955613;29;20026;-73
2022/03/16 03:31:40;;;;;;;15.23;11.02;;;10.90;69.10;;;;;;4955000;28;20023;-74
2022/03/16 03:34:06;;;;;;;13.02;9.45;;;10.90;69.10;;;;;;4955597;28;20020;-73
2022/03/16 03:36:32;;;;;;;14.85;11.57;;;10.90;69.10;;;;;;4955325;28;20063;-74
2022/03/16 03:38:57;;;;;;;13.60;10.63;;;10.90;69.00;;;;;;4955410;28;20031;-74
2022/03/16 03:41:23;;;;;;;15.95;12.30;;;10.90;69.00;;;;;;4955420;28;20024;-73
2022/03/16 03:43:49;;;;;;;19.08;13.45;;;10.90;68.80;;;;;;4955406;29;20536;-73
2022/03/16 03:46:15;;;;;;;18.73;13.73;;;10.90;68.80;;;;;;4954962;29;20095;-74
2022/03/16 03:48:41;;;;;;;17.75;13.40;;;10.90;68.90;;;;;;4955441;29;20035;-73
2022/03/16 03:51:07;;;;;;;21.13;14.15;;;10.90;68.60;;;;;;4955335;28;20031;-73
2022/03/16 03:53:34;;;;;;;17.33;12.93;;;10.80;68.30;;;;;;4955383;28;20036;-73
2022/03/16 03:55:59;;;;;;;18.13;13.05;;;10.80;68.30;;;;;;4955265;28;20023;-73
2022/03/16 03:58:25;;;;;;;17.42;13.13;;;10.80;68.40;;;;;;4955005;28;20051;-73
2022/03/16 04:00:52;;;;;;;18.92;14.20;;;10.80;68.50;;;;;;4969934;28;20351;-74
2022/03/16 04:03:18;;;;;;;18.63;13.60;;;10.70;68.50;;;;;;4955133;28;20023;-73
2022/03/16 04:05:44;;;;;;;14.98;11.18;;;10.70;68.80;;;;;;4955061;28;20042;-73
2022/03/16 04:08:10;;;;;;;16.63;13.30;;;10.70;68.90;;;;;;4955055;28;20114;-74
2022/03/16 04:10:38;;;;;;;18.10;12.30;;;10.70;69.00;;;;;;4954984;28;20075;-74
2022/03/16 04:13:05;;;;;;;18.02;13.57;;;10.70;69.00;;;;;;4954287;28;20023;-74
2022/03/16 04:15:31;;;;;;;18.83;13.90;;;10.70;69.00;;;;;;4954893;29;20039;-74
2022/03/16 04:17:57;;;;;;;20.20;14.70;;;10.70;68.90;;;;;;4955007;29;20027;-74
2022/03/16 04:20:22;;;;;;;22.00;15.65;;;10.70;68.80;;;;;;4954891;29;20362;-74
2022/03/16 04:22:48;;;;;;;19.10;14.27;;;10.70;68.70;;;;;;4954357;28;20023;-74
2022/03/16 04:25:14;;;;;;;21.52;15.30;;;10.70;68.60;;;;;;4954661;28;20042;-74
2022/03/16 04:27:40;;;;;;;17.92;13.68;;;10.70;68.40;;;;;;4954667;29;20069;-73
2022/03/16 04:30:07;;;;;;;16.60;12.30;;;10.60;68.40;;;;;;4954616;28;20027;-73
2022/03/16 04:32:33;;;;;;;19.75;14.60;;;10.60;68.30;;;;;;4954603;28;20389;-73
2022/03/16 04:34:58;;;;;;;22.35;15.93;;;10.50;68.30;;;;;;4954409;28;20031;-73
2022/03/16 04:37:24;;;;;;;20.70;14.75;;;10.50;68.40;;;;;;4954744;28;20015;-74
2022/03/16 04:39:50;;;;;;;22.42;16.23;;;10.50;68.50;;;;;;4953339;28;20380;-73
2022/03/16 04:42:16;;;;;;;22.05;15.27;;;10.40;68.50;;;;;;4954479;28;20103;-73
2022/03/16 04:44:42;;;;;;;22.15;15.18;;;10.30;68.60;;;;;;4954191;28;20027;-74
2022/03/16 04:47:08;;;;;;;24.27;17.13;;;10.30;68.50;;;;;;4952687;28;20031;-74
2022/03/16 04:49:33;;;;;;;20.13;14.98;;;10.20;68.50;;;;;;4954642;28;20058;-73
2022/03/16 04:51:59;;;;;;;19.40;14.57;;;10.20;68.60;;;;;;4954574;28;20027;-73
2022/03/16 04:54:25;;;;;;;22.25;15.82;;;10.20;68.90;;;;;;4954481;28;20028;-73
2022/03/16 04:56:51;;;;;;;24.58;16.95;;;10.10;69.10;;;;;;4954598;28;20498;-74
2022/03/16 04:59:17;;;;;;;24.30;16.67;;;10.10;69.30;;;;;;4954404;28;20055;-73
2022/03/16 05:01:43;;;;;;;22.80;16.55;;;10.20;69.50;;;;;;4953984;28;20030;-74
2022/03/16 05:04:09;;;;;;;22.58;16.23;;;10.20;69.70;;;;;;4969284;28;20474;-74
2022/03/16 05:06:35;;;;;;;21.50;16.20;;;10.20;69.90;;;;;;4969246;28;20042;-74
2022/03/16 05:09:05;;;;;;;24.35;17.00;;;10.20;69.70;;;;;;4954143;28;20135;-73
2022/03/16 05:11:31;;;;;;;22.33;16.48;;;10.20;69.70;;;;;;4954370;28;20106;-74
2022/03/16 05:13:57;;;;;;;22.77;15.68;;;10.20;69.80;;;;;;4954320;28;20110;-73
2022/03/16 05:16:22;;;;;;;23.13;16.65;;;10.30;70.00;;;;;;4968684;28;20039;-74
2022/03/16 05:18:48;;;;;;;22.80;17.13;;;10.30;69.80;;;;;;4968839;28;20043;-73
2022/03/16 05:21:15;;;;;;;21.80;15.15;;;10.40;69.40;;;;;;4953977;28;20027;-73
2022/03/16 05:23:41;;;;;;;19.13;14.00;;;10.40;69.10;;;;;;4956030;28;20062;-73
2022/03/16 05:26:07;;;;;;;20.02;13.98;;;10.40;68.80;;;;;;4975173;28;20059;-74
2022/03/16 05:28:35;;;;;;;19.20;13.43;;;10.40;68.80;;;;;;4968654;28;20098;-73
2022/03/16 05:31:01;;;;;;;17.90;13.18;;;10.40;68.70;;;;;;4972312;28;20396;-74
2022/03/16 05:33:27;;;;;;;22.45;15.80;;;10.30;68.70;;;;;;4956939;28;20035;-74
2022/03/16 05:35:52;;;;;;;18.98;13.77;;;10.30;68.70;;;;;;4972283;28;20544;-74
2022/03/16 05:38:18;;;;;;;18.45;13.63;;;10.30;68.80;;;;;;4957017;28;20102;-73
2022/03/16 05:40:44;;;;;;;19.38;14.10;;;10.30;68.80;;;;;;4975609;28;20058;-73
2022/03/16 05:43:11;;;;;;;21.30;15.10;;;10.30;68.90;;;;;;4969677;28;20077;-73
2022/03/16 05:45:37;;;;;;;20.85;15.23;;;10.30;69.10;;;;;;4961127;28;20031;-74
2022/03/16 05:48:04;;;;;;;23.67;14.98;;;10.30;69.10;;;;;;4959012;28;20081;-74
2022/03/16 05:50:30;;;;;;;16.67;12.50;;;10.30;69.20;;;;;;4957506;28;20035;-74
2022/03/16 05:52:58;;;;;;;19.05;14.02;;;10.30;69.20;;;;;;4957393;28;20046;-74
2022/03/16 05:55:27;;;;;;;22.55;15.27;;;10.40;69.40;;;;;;4956163;29;20119;-75
2022/03/16 05:57:53;;;;;;;21.50;15.15;;;10.40;69.60;;;;;;4957116;28;20110;-74
2022/03/16 06:00:20;;;;;;;22.30;15.40;;;10.50;69.60;;;;;;4957326;28;20028;-73
2022/03/16 06:02:47;;;;;;;20.33;14.98;;;10.50;69.70;;;;;;4957269;28;20049;-74
2022/03/16 06:05:14;;;;;;;21.20;15.95;;;10.60;69.90;;;;;;4957102;28;20036;-74
2022/03/16 06:07:40;;;;;;;19.50;14.07;;;10.60;69.80;;;;;;4957141;28;20047;-74
2022/03/16 06:10:08;;;;;;;19.88;14.13;;;10.70;69.90;;;;;;4957007;28;20031;-75
2022/03/16 06:12:42;;;;;;;19.92;14.32;;;10.70;69.90;;;;;;4957050;28;20027;-74
2022/03/16 06:15:08;;;;;;;18.48;13.70;;;10.80;69.90;;;;;;4956719;28;20027;-74
2022/03/16 06:17:33;;;;;;;22.15;15.55;;;10.90;69.90;;;;;;4956863;28;20338;-74
2022/03/16 06:19:59;;;;;;;22.05;15.20;;;10.90;69.90;;;;;;4956647;28;20034;-74
2022/03/16 06:22:25;;;;;;;20.58;16.30;;;10.90;69.70;;;;;;4956823;28;20024;-74
2022/03/16 06:24:51;;;;;;;24.20;15.45;;;11.00;69.70;;;;;;4956763;28;20027;-74
2022/03/16 06:27:17;;;;;;;21.52;16.50;;;11.00;69.70;;;;;;4971606;28;20109;-74
2022/03/16 06:29:43;;;;;;;22.73;17.17;;;11.10;69.60;;;;;;4956659;28;20031;-74
2022/03/16 06:32:09;;;;;;;24.63;16.67;;;11.20;69.50;;;;;;4956048;28;20031;-74
2022/03/16 06:34:34;;;;;;;23.38;17.60;;;11.20;69.30;;;;;;4955817;28;20038;-74
2022/03/16 06:37:00;;;;;;;22.42;17.67;;;11.30;69.10;;;;;;4956596;28;20030;-74
2022/03/16 06:39:26;;;;;;;25.90;18.13;;;11.30;68.70;;;;;;4956527;29;20031;-74
2022/03/16 06:41:52;;;;;;;24.02;17.38;;;11.30;68.20;;;;;;4956421;28;20029;-74
2022/03/16 06:44:17;;;;;;;26.35;17.30;;;11.40;68.30;;;;;;4956361;29;20026;-74
2022/03/16 06:46:43;;;;;;;21.80;16.17;;;11.50;68.50;;;;;;4956356;29;20075;-74
2022/03/16 06:49:09;;;;;;;20.02;15.20;;;11.60;68.90;;;;;;4956254;29;20031;-74
2022/03/16 06:51:35;;;;;;;26.83;17.08;;;11.60;69.20;;;;;;4956198;29;20019;-74
2022/03/16 06:54:00;;;;;;;26.55;16.85;;;11.70;69.00;;;;;;4956139;29;20023;-74
2022/03/16 06:56:26;;;;;;;23.95;18.20;;;11.80;68.60;;;;;;4956060;29;20029;-74
2022/03/16 06:58:52;;;;;;;22.30;16.80;;;11.80;67.90;;;;;;4955839;29;20390;-74
2022/03/16 07:01:18;;;;;;;27.98;19.42;;;11.80;67.50;;;;;;4956029;29;20471;-74
2022/03/16 07:03:44;;;;;;;27.70;16.98;;;11.80;67.00;;;;;;4956012;29;20031;-74
2022/03/16 07:06:10;;;;;;;26.88;19.02;;;11.80;67.10;;;;;;4955912;29;20397;-74
2022/03/16 07:08:36;;;;;;;27.88;18.20;;;11.90;67.10;;;;;;4955333;29;20027;-75
2022/03/16 07:11:02;;;;;;;23.27;17.35;;;11.90;66.50;;;;;;4955843;28;20569;-74
2022/03/16 07:13:27;;;;;;;30.15;18.60;;;11.90;66.00;;;;;;4955990;28;20419;-75
2022/03/16 07:15:53;;;;;;;31.55;18.63;;;11.90;66.10;;;;;;4955575;28;20354;-74
2022/03/16 07:18:20;;;;;;;30.10;18.48;;;11.90;66.00;;;;;;4954510;28;20063;-74
2022/03/16 07:20:47;;;;;;;25.77;17.95;;;11.90;65.40;;;;;;4955493;28;20019;-74
2022/03/16 07:23:17;;;;;;;22.50;16.95;;;11.90;65.60;;;;;;4950212;28;20015;-74
2022/03/16 07:25:48;;;;;;;26.15;17.75;;;11.90;65.30;;;;;;4954839;28;20023;-74
2022/03/16 07:28:15;;;;;;;25.90;18.55;;;11.90;65.10;;;;;;4955668;28;20031;-72
2022/03/16 07:30:42;;;;;;;23.55;17.10;;;11.90;65.00;;;;;;4955883;28;20031;-72
2022/03/16 07:33:09;;;;;;;22.17;17.05;;;12.00;65.20;;;;;;4962578;28;20027;-73
2022/03/16 07:35:36;;;;;;;25.25;16.85;;;12.00;65.30;;;;;;4963275;28;20533;-73
2022/03/16 07:38:02;;;;;;;24.00;17.50;;;12.10;65.10;;;;;;4956055;29;20034;-73
2022/03/16 07:40:33;;;;;;;22.88;15.93;;;12.10;65.10;;;;;;4955301;28;20027;-73
2022/03/16 07:42:59;;;;;;;23.40;16.73;;;12.10;65.10;;;;;;4955022;28;20096;-73
2022/03/16 07:45:26;;;;;;;25.45;17.67;;;12.10;64.80;;;;;;4959089;28;20044;-73
2022/03/16 07:47:53;;;;;;;33.80;18.20;;;12.00;64.30;;;;;;4960847;28;20058;-73
2022/03/16 07:50:19;;;;;;;25.38;17.45;;;12.00;64.40;;;;;;4955406;28;20023;-75
2022/03/16 07:52:45;;;;;;;20.45;15.88;;;12.00;64.70;;;;;;4970780;28;20026;-72
2022/03/16 07:55:13;;;;;;;25.15;16.67;;;12.00;65.20;;;;;;4982609;28;20031;-73
2022/03/16 07:57:39;;;;;;;24.95;18.02;;;12.00;65.30;;;;;;4954774;29;20027;-73
2022/03/16 08:00:11;;;;;;;23.77;17.35;;;12.00;65.10;;;;;;4955216;28;20038;-72
2022/03/16 08:02:38;;;;;;;23.20;16.70;;;12.10;65.30;;;;;;4955015;28;20023;-72
2022/03/16 08:05:05;;;;;;;23.10;16.20;;;12.10;65.30;;;;;;4954958;29;20111;-73
2022/03/16 08:07:31;;;;;;;23.10;16.20;;;12.10;64.90;;;;;;4954983;28;20031;-73
2022/03/16 08:09:57;;;;;;;24.08;16.95;;;12.10;64.70;;;;;;4969845;28;20085;-73
2022/03/16 08:12:23;;;;;;;31.90;18.52;;;12.10;64.90;;;;;;4955096;28;20176;-73
2022/03/16 08:14:50;;;;;;;26.17;16.73;;;12.10;65.00;;;;;;4954828;29;20043;-73
2022/03/16 08:17:16;;;;;;;29.67;18.60;;;12.10;64.70;;;;;;4955085;28;20046;-73
2022/03/16 08:19:42;;;;;;;21.35;15.65;;;12.10;64.20;;;;;;4969883;28;20027;-74
2022/03/16 08:22:08;;;;;;;26.83;16.50;;;12.20;64.60;;;;;;4954994;28;20027;-73
2022/03/16 08:24:34;;;;;;;24.92;18.25;;;12.30;64.90;;;;;;4960181;28;20026;-73
2022/03/16 08:27:00;;;;;;;23.88;16.50;;;12.30;64.60;;;;;;4974188;28;20415;-73
2022/03/16 08:29:26;;;;;;;23.58;15.40;;;12.40;64.70;;;;;;4957883;28;20031;-73
2022/03/16 08:31:51;;;;;;;27.08;16.15;;;12.50;65.00;;;;;;4954357;29;20084;-73
2022/03/16 08:34:18;;;;;;;26.05;17.98;;;12.70;65.50;;;;;;4954417;28;20059;-74
2022/03/16 08:36:44;;;;;;;21.50;16.80;;;12.70;64.60;;;;;;4954602;28;20028;-74
2022/03/16 08:39:10;;;;;;;29.42;16.88;;;12.80;63.80;;;;;;4958753;28;20031;-73
2022/03/16 08:41:36;;;;;;;22.77;16.75;;;12.90;63.30;;;;;;4950616;29;20031;-73
2022/03/16 08:44:02;;;;;;;33.92;16.95;;;13.00;63.60;;;;;;4953315;29;20027;-74
2022/03/16 08:46:29;;;;;;;23.90;16.85;;;13.10;62.80;;;;;;4954727;28;20031;-73
2022/03/16 08:48:55;;;;;;;27.02;17.27;;;13.10;62.50;;;;;;4954652;28;20029;-73
2022/03/16 08:51:21;;;;;;;22.67;15.85;;;13.20;62.40;;;;;;4963821;28;20433;-74
2022/03/16 08:53:46;;;;;;;24.02;17.45;;;13.30;62.50;;;;;;4955839;28;20024;-73
2022/03/16 08:56:13;;;;;;;22.20;17.08;;;13.30;61.90;;;;;;4954543;28;20481;-74
2022/03/16 08:58:39;;;;;;;24.23;16.70;;;13.30;60.60;;;;;;4967966;28;20043;-73
2022/03/16 09:01:05;;;;;;;25.90;16.73;;;13.40;60.30;;;;;;4973169;28;20030;-73
2022/03/16 09:03:31;;;;;;;22.00;16.52;;;13.40;60.80;;;;;;4951130;28;20046;-73
2022/03/16 09:05:58;;;;;;;19.35;14.52;;;13.40;60.50;;;;;;4954205;29;20039;-74
2022/03/16 09:08:24;;;;;;;23.38;16.00;;;13.50;61.30;;;;;;4958145;29;20031;-74
2022/03/16 09:10:50;;;;;;;22.02;16.73;;;13.60;61.70;;;;;;4956446;28;20081;-73
2022/03/16 09:13:17;;;;;;;25.30;16.30;;;13.70;61.30;;;;;;4954642;28;20031;-73
2022/03/16 09:15:44;;;;;;;21.95;16.05;;;13.70;61.00;;;;;;4956309;29;20043;-73
2022/03/16 09:18:10;;;;;;;23.70;17.20;;;13.80;60.20;;;;;;4957795;28;20523;-74
2022/03/16 09:20:37;;;;;;;24.77;16.05;;;13.90;59.80;;;;;;4956852;29;20528;-73
2022/03/16 09:23:03;;;;;;;23.27;15.27;;;13.90;59.50;;;;;;4956028;28;20023;-73
2022/03/16 09:25:29;;;;;;;25.63;16.95;;;13.90;59.50;;;;;;4956900;28;20458;-74
2022/03/16 09:27:55;;;;;;;22.13;15.73;;;13.90;59.40;;;;;;4957296;28;20027;-72
2022/03/16 09:30:24;;;;;;;21.77;16.17;;;13.90;59.20;;;;;;4956529;28;20472;-73
2022/03/16 09:32:50;;;;;;;23.80;16.67;;;14.00;58.90;;;;;;4957097;28;20035;-74
2022/03/16 09:35:16;;;;;;;23.08;16.15;;;13.90;58.00;;;;;;4961279;28;20111;-73
2022/03/16 09:37:42;;;;;;;23.48;17.45;;;13.90;58.10;;;;;;4956873;28;20447;-74
2022/03/16 09:40:08;;;;;;;23.45;15.98;;;13.90;58.30;;;;;;4956476;28;20144;-75
2022/03/16 09:42:34;;;;;;;24.30;16.85;;;14.00;57.70;;;;;;4955978;29;20033;-74
2022/03/16 09:45:02;;;;;;;22.30;16.80;;;14.00;57.90;;;;;;4959511;28;20492;-74
2022/03/16 09:47:30;;;;;;;19.50;14.90;;;14.10;57.90;;;;;;4957581;28;20078;-74
2022/03/16 09:49:56;;;;;;;22.77;16.15;;;14.10;57.90;;;;;;4957366;28;20477;-74
2022/03/16 09:52:26;;;;;;;23.17;17.52;;;14.20;57.30;;;;;;4955852;28;20030;-74
2022/03/16 09:54:55;;;;;;;25.85;17.98;;;14.30;57.00;;;;;;4970879;28;20042;-74
2022/03/16 09:57:21;;;;;;;23.42;16.58;;;14.30;56.50;;;;;;4953167;28;20106;-73
2022/03/16 09:59:47;;;;;;;22.63;16.27;;;14.40;56.50;;;;;;4949708;29;20035;-74
2022/03/16 10:02:17;;;;;;;23.75;16.77;;;14.50;56.60;;;;;;4966905;28;20397;-74
2022/03/16 10:04:46;;;;;;;23.30;16.05;;;14.60;56.70;;;;;;4950823;28;20103;-74
2022/03/16 10:07:11;;;;;;;23.20;16.48;;;14.70;57.20;;;;;;4966652;28;20027;-73
2022/03/16 10:15:10;;;;;;;;;;;14.80;56.70;;;;;;4955580;28;19965;-74
2022/03/16 10:17:43;;;;;;;27.55;18.55;;;14.90;57.00;;;;;;4963668;28;19929;-74
2022/03/16 10:20:30;;;;;;;29.50;18.15;;;15.00;55.10;;;;;;4955525;29;20027;-74
2022/03/16 10:23:24;;;;;;;20.83;16.17;;;15.00;55.10;;;;;;4952998;28;20461;-72
2022/03/16 10:25:52;;;;;;;23.02;17.75;;;15.00;56.30;;;;;;4956345;28;20478;-74
2022/03/16 10:28:21;;;;;;;27.15;16.48;;;15.10;56.30;;;;;;4956602;28;20034;-73
2022/03/16 10:30:56;;;;;;;25.13;17.95;;;15.10;55.70;;;;;;4956166;29;20478;-74
2022/03/16 10:33:26;;;;;;;23.90;17.63;;;15.20;55.80;;;;;;4955416;28;20115;-73
2022/03/16 10:36:01;;;;;;;29.08;17.10;;;15.20;54.20;;;;;;4969133;28;20031;-75
2022/03/16 10:38:29;;;;;;;29.70;18.75;;;15.30;54.50;;;;;;4955194;29;20023;-74
2022/03/16 10:41:08;;;;;;;23.55;17.58;;;15.30;54.70;;;;;;4956196;28;20023;-73
2022/03/16 10:46:38;;;;;;;27.23;17.83;;;15.40;54.00;;;;;;4953031;29;20082;-74
2022/03/16 10:49:12;;;;;;;26.77;18.70;;;15.50;54.50;;;;;;4966512;28;20478;-74
2022/03/16 10:51:38;;;;;;;34.25;19.08;;;15.60;53.50;;;;;;4956407;28;20069;-75
2022/03/16 10:54:05;;;;;;;31.60;18.58;;;15.60;53.20;;;;;;4956464;28;20389;-73
2022/03/16 10:56:32;;;;;;;25.08;17.98;;;15.70;52.50;;;;;;4962149;28;20027;-75
2022/03/16 10:58:59;;;;;;;31.33;18.48;;;15.70;53.40;;;;;;4963793;28;20136;-74
2022/03/16 11:01:27;;;;;;;23.58;17.05;;;15.70;53.10;;;;;;4955965;28;20474;-75
2022/03/16 11:03:58;;;;;;;25.50;19.23;;;15.80;53.00;;;;;;4955816;28;20449;-74
2022/03/16 11:06:25;;;;;;;24.83;19.15;;;15.80;52.00;;;;;;4958212;28;20363;-75
2022/03/16 11:08:51;;;;;;;23.20;17.42;;;15.80;52.50;;;;;;4966999;28;20066;-74
2022/03/16 11:14:05;;;;;;;24.02;18.50;;;15.80;52.90;;;;;;4956081;29;20093;-74
2022/03/16 11:16:32;;;;;;;30.77;19.35;;;15.90;52.60;;;;;;4959460;28;20079;-74
2022/03/16 11:19:04;;;;;;;25.83;17.75;;;16.00;52.70;;;;;;4963564;28;20064;-74
2022/03/16 11:22:18;;;;;;;23.20;17.52;;;16.00;53.30;;;;;;4955890;28;20078;-73
2022/03/16 11:24:47;;;;;;;31.25;22.38;;;16.10;53.20;;;;;;4953432;29;20031;-74
2022/03/16 11:27:24;;;;;;;26.80;20.15;;;16.10;53.20;;;;;;4953596;29;20035;-74
2022/03/16 11:30:10;;;;;;;22.17;17.60;;;16.10;53.10;;;;;;4953748;29;20046;-75
2022/03/16 11:32:38;;;;;;;35.95;19.38;;;16.10;53.10;;;;;;4953635;29;20039;-74
2022/03/16 11:35:08;;;;;;;26.15;19.20;;;16.10;51.50;;;;;;4953343;28;20035;-74
2022/03/16 11:37:38;;;;;;;27.02;19.98;;;16.00;52.00;;;;;;4953295;28;20081;-75
2022/03/16 11:40:10;;;;;;;28.08;19.63;;;15.90;51.60;;;;;;4952822;28;20513;-75
2022/03/16 11:42:37;;;;;;;26.60;19.08;;;15.80;51.20;;;;;;4935236;29;20043;-75
2022/03/16 11:45:32;;;;;;;27.02;20.05;;;15.80;51.60;;;;;;4938446;29;20050;-75
2022/03/16 11:47:57;;;;;;;31.63;21.45;;;15.70;52.70;;;;;;4947298;29;20114;-74
2022/03/16 11:50:23;;;;;;;25.60;19.48;;;15.70;51.90;;;;;;4953088;29;20063;-75
2022/03/16 11:53:00;;;;;;;25.15;19.48;;;15.70;52.20;;;;;;4952835;28;20405;-74
2022/03/16 11:55:38;;;;;;;33.15;20.58;;;15.70;51.60;;;;;;4952759;28;20089;-75
2022/03/16 11:58:25;;;;;;;28.65;19.95;;;15.70;51.30;;;;;;4937509;29;20044;-76
2022/03/16 12:01:09;;;;;;;24.67;19.75;;;15.70;51.20;;;;;;4950960;28;20057;-75
2022/03/16 12:03:44;;;;;;;27.60;21.00;;;15.70;51.10;;;;;;4942252;28;20024;-76
2022/03/16 12:06:10;;;;;;;27.33;19.77;;;15.70;51.00;;;;;;4954747;28;20046;-76
2022/03/16 12:08:52;;;;;;;29.67;22.08;;;15.60;50.90;;;;;;4969104;28;20027;-75
2022/03/16 12:14:06;;;;;;;31.85;23.63;;;15.50;50.40;;;;;;4954572;29;20152;-75
2022/03/16 12:16:44;;;;;;;31.10;23.23;;;15.50;50.20;;;;;;4954451;28;20114;-75
2022/03/16 12:19:29;;;;;;;32.38;23.38;;;15.50;50.20;;;;;;4952984;29;20102;-76
2022/03/16 12:21:57;;;;;;;30.48;21.60;;;15.50;49.80;;;;;;4954520;28;20019;-75
2022/03/16 12:25:09;;;;;;;26.70;20.75;;;15.60;50.10;;;;;;4954452;28;20023;-77
2022/03/16 12:30:12;;;;;;;27.63;19.58;;;15.80;51.80;;;;;;4955864;28;20043;-75
2022/03/16 12:32:38;;;;;;;25.67;20.33;;;15.80;52.60;;;;;;4965733;28;20031;-75
2022/03/16 12:35:06;;;;;;;27.05;20.70;;;15.90;52.50;;;;;;4954407;28;20026;-76
2022/03/16 12:37:32;;;;;;;27.90;21.70;;;16.00;51.80;;;;;;4974740;28;20019;-75
2022/03/16 12:39:58;;;;;;;32.25;22.17;;;16.00;51.70;;;;;;4961184;28;20094;-75
2022/03/16 12:42:34;;;;;;;25.92;20.35;;;16.10;51.10;;;;;;4954636;28;20031;-75
2022/03/16 12:45:09;;;;;;;29.63;20.55;;;16.10;52.20;;;;;;4973916;28;20031;-75
2022/03/16 12:47:41;;;;;;;28.27;21.20;;;16.30;52.50;;;;;;4975209;28;20027;-76